Time;durP1;ratioP1;P1;durP2;ratioP2;P2;SDS_P1;SDS_P2;PMS_P1;PMS_P2;Temp;Humidity;BMP_temperature;BMP_pressure;BME280_temperature;BME280_humidity;BME280_pressure;Samples;Min_cycle;Max_cycle;Signal;HPM_P1;HPM_P2
2023/06/02 00:01:01;;;;;;;8.60;7.10;;;13.20;1.00;;;;;;4823527;29;20087;-57
2023/06/02 00:03:32;;;;;;;9.73;7.50;;;13.10;1.00;;;;;;4823499;29;20433;-58
2023/06/02 00:06:11;;;;;;;7.35;6.30;;;13.10;1.00;;;;;;4823512;29;20113;-58
2023/06/02 00:08:40;;;;;;;9.45;6.93;;;13.10;1.00;;;;;;4823679;29;20465;-58
2023/06/02 00:11:07;;;;;;;11.20;7.10;;;13.00;1.00;;;;;;4823647;29;20058;-56
2023/06/02 00:13:33;;;;;;;10.45;7.60;;;13.00;1.00;;;;;;4823597;29;20125;-58
2023/06/02 00:16:00;;;;;;;14.30;7.45;;;13.00;1.00;;;;;;4823232;29;20039;-58
2023/06/02 00:18:26;;;;;;;21.63;6.97;;;13.00;1.00;;;;;;4823169;29;20046;-59
2023/06/02 00:20:52;;;;;;;7.97;6.57;;;12.90;1.00;;;;;;4823317;29;20039;-58
2023/06/02 00:23:18;;;;;;;9.23;6.38;;;12.90;1.00;;;;;;4823390;29;20026;-58
2023/06/02 00:25:45;;;;;;;9.45;7.43;;;12.80;1.00;;;;;;4822796;29;20047;-58
2023/06/02 00:28:11;;;;;;;9.43;6.78;;;12.80;1.00;;;;;;4822825;29;20050;-57
2023/06/02 00:30:36;;;;;;;9.57;6.70;;;12.70;1.00;;;;;;4822971;29;20458;-57
2023/06/02 00:33:02;;;;;;;13.57;7.32;;;12.70;1.00;;;;;;4822973;29;20068;-58
2023/06/02 00:35:28;;;;;;;10.85;7.80;;;12.50;1.00;;;;;;4823040;29;20493;-57
2023/06/02 00:37:54;;;;;;;9.20;7.50;;;12.40;1.00;;;;;;4821438;29;20030;-58
2023/06/02 00:40:21;;;;;;;18.88;8.63;;;12.40;1.00;;;;;;4822719;29;20052;-56
2023/06/02 00:42:46;;;;;;;11.68;6.50;;;12.30;1.00;;;;;;4822937;29;20035;-58
2023/06/02 00:45:14;;;;;;;14.00;7.28;;;12.40;1.00;;;;;;4822496;29;20054;-57
2023/06/02 00:47:40;;;;;;;8.18;6.38;;;12.30;1.00;;;;;;4836654;29;20383;-58
2023/06/02 00:50:07;;;;;;;15.35;8.57;;;12.30;1.00;;;;;;4823107;29;20034;-58
2023/06/02 00:52:33;;;;;;;11.95;7.35;;;12.30;1.00;;;;;;4823132;29;20079;-58
2023/06/02 00:55:02;;;;;;;8.45;7.50;;;12.20;1.00;;;;;;4822708;29;20074;-56
2023/06/02 00:57:28;;;;;;;18.38;7.82;;;12.30;1.00;;;;;;4822834;29;20018;-57
2023/06/02 00:59:58;;;;;;;11.43;7.03;;;12.20;1.00;;;;;;4821558;29;20578;-58
2023/06/02 01:02:24;;;;;;;12.30;6.85;;;12.20;1.00;;;;;;4822899;29;20038;-56
2023/06/02 01:04:51;;;;;;;10.55;7.50;;;12.20;1.00;;;;;;4822492;29;20079;-58
2023/06/02 01:07:23;;;;;;;14.95;7.68;;;12.10;1.00;;;;;;4822943;29;20095;-56
2023/06/02 01:09:54;;;;;;;12.05;6.60;;;12.10;1.00;;;;;;4822876;29;20054;-55
2023/06/02 01:12:21;;;;;;;9.48;7.55;;;12.00;1.00;;;;;;4822897;29;20037;-57
2023/06/02 01:14:47;;;;;;;11.60;7.72;;;12.00;1.00;;;;;;4822769;29;20371;-56
2023/06/02 01:17:13;;;;;;;8.90;6.55;;;11.90;1.00;;;;;;4822768;29;20042;-58
2023/06/02 01:19:40;;;;;;;8.65;7.50;;;11.90;1.00;;;;;;4822770;29;20022;-58
2023/06/02 01:22:09;;;;;;;13.13;7.63;;;11.80;1.00;;;;;;4822275;29;20402;-56
2023/06/02 01:24:39;;;;;;;8.65;7.10;;;11.70;1.00;;;;;;4822228;29;20499;-57
2023/06/02 01:27:12;;;;;;;14.23;7.07;;;11.70;1.00;;;;;;4822494;29;20050;-57
2023/06/02 01:29:38;;;;;;;14.15;8.77;;;11.70;1.00;;;;;;4822435;29;20360;-58
2023/06/02 01:32:29;;;;;;;13.45;7.28;;;11.60;1.00;;;;;;4822323;29;20027;-57
2023/06/02 01:35:07;;;;;;;15.20;7.80;;;11.60;1.00;;;;;;4821979;29;20027;-55
2023/06/02 01:37:34;;;;;;;12.45;7.57;;;11.50;1.00;;;;;;4822589;29;20083;-56
2023/06/02 01:40:01;;;;;;;12.75;7.90;;;11.40;6.00;;;;;;4822368;29;20030;-56
2023/06/02 01:42:28;;;;;;;11.68;7.60;;;11.50;27.60;;;;;;4822493;29;20390;-56
2023/06/02 01:44:55;;;;;;;11.27;7.53;;;11.40;19.50;;;;;;4822148;29;20379;-57
2023/06/02 01:47:21;;;;;;;12.23;8.05;;;11.50;1.00;;;;;;4822513;29;20502;-59
2023/06/02 01:49:47;;;;;;;9.75;7.28;;;11.40;3.30;;;;;;4822346;29;20102;-57
2023/06/02 01:52:12;;;;;;;27.70;6.90;;;11.40;1.00;;;;;;4821198;29;20034;-57
2023/06/02 01:54:38;;;;;;;11.98;6.95;;;11.30;1.00;;;;;;4822511;29;20363;-57
2023/06/02 01:57:04;;;;;;;9.43;7.68;;;11.20;1.00;;;;;;4822250;29;20031;-56
2023/06/02 01:59:29;;;;;;;11.52;6.82;;;11.30;1.00;;;;;;4822149;29;20038;-57
2023/06/02 02:01:55;;;;;;;10.02;7.68;;;11.20;1.00;;;;;;4822185;29;20018;-57
2023/06/02 02:04:22;;;;;;;8.88;7.00;;;11.10;3.20;;;;;;4822359;29;20587;-58
2023/06/02 02:06:52;;;;;;;9.10;8.15;;;11.20;10.40;;;;;;4822202;29;20031;-57
2023/06/02 02:09:18;;;;;;;10.35;7.78;;;11.20;12.20;;;;;;4822405;29;20031;-56
2023/06/02 02:11:43;;;;;;;11.77;7.57;;;11.20;15.50;;;;;;4822254;29;20050;-54
2023/06/02 02:14:09;;;;;;;10.65;7.53;;;11.20;14.00;;;;;;4822196;29;20098;-58
2023/06/02 02:16:35;;;;;;;10.57;8.50;;;11.20;7.70;;;;;;4823661;29;20225;-57
2023/06/02 02:19:01;;;;;;;15.07;7.53;;;11.10;1.00;;;;;;4825202;29;20509;-55
2023/06/02 02:21:27;;;;;;;12.38;7.75;;;11.10;1.00;;;;;;4825272;29;20054;-56
2023/06/02 02:23:55;;;;;;;10.77;7.65;;;11.00;1.00;;;;;;4824938;29;20123;-58
2023/06/02 02:26:21;;;;;;;11.85;7.00;;;11.00;1.00;;;;;;4825164;29;20502;-56
2023/06/02 02:28:47;;;;;;;9.48;7.28;;;10.90;1.00;;;;;;4825213;29;20051;-59
2023/06/02 02:31:13;;;;;;;10.57;7.78;;;10.90;1.00;;;;;;4825022;29;20030;-56
2023/06/02 02:33:39;;;;;;;10.13;7.45;;;10.70;15.40;;;;;;4825045;29;20040;-58
2023/06/02 02:36:05;;;;;;;8.90;7.70;;;10.80;20.40;;;;;;4824850;29;20030;-58
2023/06/02 02:38:31;;;;;;;9.90;7.82;;;10.80;25.80;;;;;;4825141;29;20045;-58
2023/06/02 02:40:57;;;;;;;13.43;8.10;;;10.80;23.20;;;;;;4824792;29;20641;-56
2023/06/02 02:43:22;;;;;;;16.90;8.15;;;10.80;13.70;;;;;;4824933;29;20031;-58
2023/06/02 02:45:48;;;;;;;8.07;7.03;;;10.70;7.70;;;;;;4824787;29;20065;-57
2023/06/02 02:48:14;;;;;;;10.38;8.30;;;10.70;1.40;;;;;;4824750;29;20034;-58
2023/06/02 02:50:39;;;;;;;19.65;9.52;;;10.70;1.00;;;;;;4824952;29;20044;-59
2023/06/02 02:53:05;;;;;;;14.18;7.40;;;10.70;2.50;;;;;;4824689;29;20034;-55
2023/06/02 02:55:32;;;;;;;8.25;7.10;;;10.70;1.00;;;;;;4824631;29;20440;-59
2023/06/02 02:57:59;;;;;;;9.18;7.78;;;10.60;2.40;;;;;;4838557;29;20118;-58
2023/06/02 03:00:25;;;;;;;9.48;7.22;;;10.60;7.90;;;;;;4824679;29;20035;-57
2023/06/02 03:02:51;;;;;;;9.18;7.25;;;10.50;5.10;;;;;;4824639;29;20060;-58
2023/06/02 03:05:17;;;;;;;12.10;7.50;;;10.50;10.20;;;;;;4824712;29;20459;-58
2023/06/02 03:07:44;;;;;;;10.25;8.00;;;10.50;12.40;;;;;;4824601;29;20038;-59
2023/06/02 03:10:10;;;;;;;10.88;8.13;;;10.40;28.90;;;;;;4824539;29;20068;-59
2023/06/02 03:12:36;;;;;;;9.30;7.50;;;10.50;28.10;;;;;;4824286;29;20073;-58
2023/06/02 03:15:02;;;;;;;9.73;7.70;;;10.40;21.40;;;;;;4824176;29;20178;-56
2023/06/02 03:17:28;;;;;;;10.80;8.20;;;10.40;16.10;;;;;;4824580;29;20105;-58
2023/06/02 03:19:57;;;;;;;12.70;9.52;;;10.40;25.50;;;;;;4824294;29;20114;-57
2023/06/02 03:22:23;;;;;;;16.05;7.78;;;10.30;29.50;;;;;;4824351;29;20527;-58
2023/06/02 03:24:50;;;;;;;9.95;8.65;;;10.20;27.50;;;;;;4824173;29;20054;-56
2023/06/02 03:27:16;;;;;;;12.23;8.73;;;10.30;43.40;;;;;;4824126;29;20026;-57
2023/06/02 03:29:42;;;;;;;10.65;7.75;;;10.40;44.80;;;;;;4824282;29;20027;-57
2023/06/02 03:32:10;;;;;;;18.02;8.50;;;10.40;47.60;;;;;;4824117;29;20554;-57
2023/06/02 03:34:36;;;;;;;16.92;7.88;;;10.60;41.40;;;;;;4824235;29;20037;-55
2023/06/02 03:37:02;;;;;;;12.20;8.73;;;10.60;37.20;;;;;;4823978;29;20023;-58
2023/06/02 03:39:28;;;;;;;13.95;9.40;;;10.60;35.10;;;;;;4824168;29;20121;-57
2023/06/02 03:41:53;;;;;;;14.50;8.25;;;10.70;28.80;;;;;;4823971;29;20152;-54
2023/06/02 03:44:20;;;;;;;13.75;8.98;;;10.80;27.20;;;;;;4823977;29;20034;-56
2023/06/02 03:46:45;;;;;;;12.20;8.90;;;10.90;16.20;;;;;;4837997;29;20070;-56
2023/06/02 03:49:11;;;;;;;20.75;8.05;;;10.90;18.80;;;;;;4823898;29;20034;-57
2023/06/02 03:51:36;;;;;;;20.67;9.35;;;11.00;27.00;;;;;;4823924;29;20125;-57
2023/06/02 03:54:02;;;;;;;14.07;8.27;;;11.10;23.00;;;;;;4823870;29;20041;-56
2023/06/02 03:56:28;;;;;;;17.48;8.70;;;11.10;9.90;;;;;;4824037;29;20031;-58
2023/06/02 03:58:54;;;;;;;9.93;8.20;;;11.10;4.60;;;;;;4823731;29;20058;-58
2023/06/02 04:01:21;;;;;;;14.73;8.48;;;11.20;8.40;;;;;;4823871;29;20022;-57
2023/06/02 04:03:47;;;;;;;11.05;8.82;;;11.10;16.90;;;;;;4823801;29;20030;-58
2023/06/02 04:06:13;;;;;;;11.20;9.18;;;11.20;24.90;;;;;;4823787;29;20050;-57
2023/06/02 04:08:39;;;;;;;13.70;9.50;;;11.20;26.60;;;;;;4823710;29;20034;-57
2023/06/02 04:11:04;;;;;;;13.15;9.65;;;11.40;26.50;;;;;;4823786;29;20066;-57
2023/06/02 04:13:30;;;;;;;12.10;9.38;;;11.40;26.30;;;;;;4823520;29;20026;-57
2023/06/02 04:15:56;;;;;;;12.45;9.60;;;11.50;26.20;;;;;;4823488;29;20478;-57
2023/06/02 04:18:22;;;;;;;16.70;8.43;;;11.60;25.90;;;;;;4823682;29;20471;-57
2023/06/02 04:20:47;;;;;;;19.42;9.30;;;11.70;20.90;;;;;;4837200;29;20026;-55
2023/06/02 04:23:13;;;;;;;15.73;9.63;;;11.70;19.40;;;;;;4837290;29;20031;-57
2023/06/02 04:25:39;;;;;;;14.30;9.38;;;11.80;17.90;;;;;;4823270;29;20070;-57
2023/06/02 04:28:05;;;;;;;13.68;8.80;;;11.90;15.10;;;;;;4807892;29;20038;-57
2023/06/02 04:30:31;;;;;;;13.63;9.65;;;12.00;15.20;;;;;;4804833;29;20031;-56
2023/06/02 04:32:56;;;;;;;15.75;9.93;;;12.20;9.70;;;;;;4818803;29;20031;-58
2023/06/02 04:35:22;;;;;;;17.27;11.13;;;12.20;8.60;;;;;;4804641;29;20105;-59
2023/06/02 04:37:48;;;;;;;16.15;9.07;;;12.30;11.40;;;;;;4804668;29;20506;-59
2023/06/02 04:40:14;;;;;;;21.05;9.23;;;12.40;11.30;;;;;;4804344;29;20027;-58
2023/06/02 04:42:40;;;;;;;13.07;10.25;;;12.50;16.00;;;;;;4804613;29;20479;-56
2023/06/02 04:45:13;;;;;;;16.45;10.27;;;12.60;11.70;;;;;;4804373;29;20053;-58
2023/06/02 04:47:40;;;;;;;14.50;9.88;;;12.80;14.80;;;;;;4804858;29;20027;-56
2023/06/02 04:50:09;;;;;;;14.60;9.48;;;12.90;7.70;;;;;;4804611;29;20034;-58
2023/06/02 04:52:38;;;;;;;14.85;9.32;;;13.10;1.00;;;;;;4804769;29;20397;-56
2023/06/02 04:55:05;;;;;;;14.80;9.20;;;13.20;1.00;;;;;;4804550;29;20035;-58
2023/06/02 04:57:30;;;;;;;17.90;10.70;;;13.40;1.00;;;;;;4804716;29;20031;-58
2023/06/02 04:59:56;;;;;;;14.27;9.75;;;13.50;1.00;;;;;;4818385;29;20035;-57
2023/06/02 05:02:22;;;;;;;15.68;10.60;;;13.70;1.00;;;;;;4804206;29;20455;-58
2023/06/02 05:04:47;;;;;;;18.10;11.18;;;13.80;1.00;;;;;;4804528;29;20376;-59
2023/06/02 05:07:13;;;;;;;14.10;11.52;;;13.90;1.00;;;;;;4804376;29;20111;-58
2023/06/02 05:09:39;;;;;;;17.02;11.80;;;14.00;1.00;;;;;;4804429;29;20045;-57
2023/06/02 05:12:05;;;;;;;15.65;10.35;;;14.10;1.00;;;;;;4804307;29;20035;-58
2023/06/02 05:14:30;;;;;;;23.05;10.98;;;14.30;1.00;;;;;;4804426;29;20027;-57
2023/06/02 05:16:56;;;;;;;14.40;9.73;;;14.40;1.00;;;;;;4804425;29;20416;-55
2023/06/02 05:19:21;;;;;;;15.18;10.00;;;14.50;1.00;;;;;;4803942;29;20038;-57
2023/06/02 05:21:47;;;;;;;12.60;10.27;;;14.60;1.00;;;;;;4804400;29;20038;-58
2023/06/02 05:24:13;;;;;;;20.40;10.82;;;14.80;1.00;;;;;;4804117;29;20058;-59
2023/06/02 05:26:39;;;;;;;16.20;9.82;;;14.90;1.00;;;;;;4804383;29;20534;-56
2023/06/02 05:29:04;;;;;;;14.73;10.68;;;15.10;1.00;;;;;;4804110;29;20030;-56
2023/06/02 05:31:30;;;;;;;17.08;9.63;;;15.20;1.00;;;;;;4804168;29;20683;-58
2023/06/02 05:33:55;;;;;;;15.35;11.07;;;15.30;1.00;;;;;;4804171;29;20037;-58
2023/06/02 05:36:21;;;;;;;14.48;10.25;;;15.50;1.00;;;;;;4803905;29;20023;-58
2023/06/02 05:38:47;;;;;;;19.65;11.18;;;15.60;1.00;;;;;;4804104;29;20026;-59
2023/06/02 05:41:12;;;;;;;14.68;10.30;;;15.80;99.90;;;;;;4804100;29;20658;-59
2023/06/02 05:43:38;;;;;;;22.65;11.63;;;15.90;99.90;;;;;;4804188;29;20033;-58
2023/06/02 05:46:03;;;;;;;15.93;10.98;;;16.00;99.90;;;;;;4803900;29;20031;-58
2023/06/02 05:48:29;;;;;;;20.58;12.40;;;16.20;99.90;;;;;;4817349;29;20387;-57
2023/06/02 05:50:55;;;;;;;14.85;11.25;;;16.20;99.90;;;;;;4824099;29;20035;-58
2023/06/02 05:53:20;;;;;;;12.68;9.57;;;16.40;99.90;;;;;;4812507;29;20069;-60
2023/06/02 05:55:46;;;;;;;11.57;9.18;;;16.40;99.90;;;;;;4807680;29;20069;-59
2023/06/02 05:58:12;;;;;;;13.68;9.60;;;16.50;99.90;;;;;;4807323;29;20027;-58
2023/06/02 06:00:40;;;;;;;12.18;8.90;;;16.60;99.90;;;;;;4807408;29;20057;-58
2023/06/02 06:03:06;;;;;;;17.73;9.15;;;16.70;61.60;;;;;;4807365;29;20507;-58
2023/06/02 06:05:31;;;;;;;21.15;9.23;;;16.90;41.50;;;;;;4807508;29;20031;-59
2023/06/02 06:07:57;;;;;;;17.55;9.80;;;17.00;57.20;;;;;;4807122;29;20035;-59
2023/06/02 06:10:23;;;;;;;14.15;9.75;;;17.10;57.00;;;;;;4807111;29;20056;-59
2023/06/02 06:12:49;;;;;;;12.48;8.88;;;17.20;1.00;;;;;;4807196;29;20042;-59
2023/06/02 06:15:16;;;;;;;18.80;9.55;;;17.40;1.00;;;;;;4807067;29;20026;-57
2023/06/02 06:17:49;;;;;;;17.00;8.43;;;17.50;1.00;;;;;;4807418;29;20106;-59
2023/06/02 06:20:15;;;;;;;;;;;17.60;1.00;;;;;;4807427;29;20114;-58
2023/06/02 06:22:42;;;;;;;21.50;8.77;;;17.70;1.00;;;;;;4820581;29;19992;-59
2023/06/02 06:25:08;;;;;;;23.95;8.75;;;17.80;1.00;;;;;;4806739;29;20427;-57
2023/06/02 06:27:34;;;;;;;13.23;8.60;;;17.90;99.90;;;;;;4806717;29;20031;-57
2023/06/02 06:30:00;;;;;;;19.40;9.32;;;18.00;99.90;;;;;;4806838;29;20042;-58
2023/06/02 06:32:25;;;;;;;14.13;7.63;;;18.10;99.90;;;;;;4807051;29;20043;-58
2023/06/02 06:34:51;;;;;;;17.52;7.80;;;18.20;1.00;;;;;;4806786;29;20379;-58
2023/06/02 06:37:17;;;;;;;10.27;7.97;;;18.40;1.00;;;;;;4806526;29;20039;-56
2023/06/02 06:39:42;;;;;;;10.63;8.05;;;18.50;1.00;;;;;;4806479;29;20103;-56
2023/06/02 06:42:08;;;;;;;14.10;8.65;;;18.60;20.60;;;;;;4806602;29;20163;-58
2023/06/02 06:44:34;;;;;;;12.98;7.47;;;18.60;1.00;;;;;;4806628;29;20037;-57
2023/06/02 06:47:00;;;;;;;18.00;7.55;;;18.80;1.00;;;;;;4806469;29;20035;-59
2023/06/02 06:49:25;;;;;;;12.00;8.75;;;18.90;99.90;;;;;;4806483;29;20046;-57
2023/06/02 06:51:51;;;;;;;12.13;7.57;;;19.10;14.00;;;;;;4805970;29;20111;-58
2023/06/02 06:54:16;;;;;;;13.93;7.60;;;19.20;1.00;;;;;;4806349;29;20027;-56
2023/06/02 06:56:43;;;;;;;13.25;7.50;;;19.30;99.90;;;;;;4806545;29;20116;-57
2023/06/02 06:59:12;;;;;;;10.80;7.75;;;19.40;99.90;;;;;;4806015;29;20431;-59
2023/06/02 07:01:38;;;;;;;11.25;7.88;;;19.40;99.90;;;;;;4805223;29;20026;-57
2023/06/02 07:04:04;;;;;;;9.18;6.78;;;19.50;99.90;;;;;;4806372;29;20023;-57
2023/06/02 07:06:31;;;;;;;8.73;6.85;;;19.70;1.00;;;;;;4806603;29;20035;-60
2023/06/02 07:08:56;;;;;;;14.90;8.18;;;19.80;87.50;;;;;;4806336;29;20031;-58
2023/06/02 07:11:22;;;;;;;10.18;6.88;;;19.90;1.90;;;;;;4806270;29;20095;-58
2023/06/02 07:13:47;;;;;;;12.02;7.45;;;19.90;18.70;;;;;;4806477;29;20114;-58
2023/06/02 07:16:13;;;;;;;11.30;6.85;;;20.10;27.90;;;;;;4806169;29;20027;-59
2023/06/02 07:18:39;;;;;;;11.20;6.63;;;20.30;99.90;;;;;;4805776;29;20468;-59
2023/06/02 07:21:05;;;;;;;18.77;7.18;;;20.40;99.90;;;;;;4806179;29;20467;-58
2023/06/02 07:23:30;;;;;;;10.88;6.35;;;20.30;80.60;;;;;;4806153;29;20098;-59
2023/06/02 07:25:56;;;;;;;11.95;7.07;;;20.50;99.90;;;;;;4805981;29;20425;-59
2023/06/02 07:28:21;;;;;;;14.52;7.13;;;20.40;31.40;;;;;;4805842;29;20066;-60
2023/06/02 07:30:48;;;;;;;13.82;7.28;;;20.60;12.70;;;;;;4805883;29;20039;-59
2023/06/02 07:33:14;;;;;;;9.05;6.88;;;20.60;45.40;;;;;;4805842;29;20084;-60
2023/06/02 07:35:40;;;;;;;10.73;6.88;;;20.80;25.50;;;;;;4805588;29;20547;-59
2023/06/02 07:38:06;;;;;;;16.52;7.35;;;20.90;1.00;;;;;;4805800;29;20038;-59
2023/06/02 07:40:32;;;;;;;12.55;7.25;;;20.90;1.00;;;;;;4805780;29;20056;-59
2023/06/02 07:42:57;;;;;;;14.30;9.10;;;21.00;1.00;;;;;;4805523;29;20031;-58
2023/06/02 07:45:23;;;;;;;11.80;7.85;;;20.90;1.00;;;;;;4805701;29;20027;-59
2023/06/02 07:47:49;;;;;;;12.68;7.38;;;21.10;1.00;;;;;;4805662;29;20031;-58
2023/06/02 07:50:14;;;;;;;8.52;6.88;;;21.20;1.00;;;;;;4819638;29;20077;-59
2023/06/02 07:52:40;;;;;;;13.93;7.53;;;21.20;1.00;;;;;;4805212;29;20104;-58
2023/06/02 07:55:06;;;;;;;14.82;7.28;;;21.30;1.00;;;;;;4805181;29;20031;-59
2023/06/02 07:57:32;;;;;;;10.38;6.90;;;21.30;1.00;;;;;;4805414;29;20466;-55
2023/06/02 07:59:57;;;;;;;9.68;6.60;;;21.30;99.90;;;;;;4805155;29;20062;-57
2023/06/02 08:02:23;;;;;;;15.32;7.35;;;21.40;99.90;;;;;;4805333;29;20054;-58
2023/06/02 08:04:49;;;;;;;13.55;7.35;;;21.40;1.00;;;;;;4805381;29;20034;-59
2023/06/02 08:07:14;;;;;;;11.77;7.55;;;21.50;99.90;;;;;;4819381;29;20027;-59
2023/06/02 08:09:40;;;;;;;15.25;7.55;;;21.60;1.00;;;;;;4804938;29;20034;-59
2023/06/02 08:12:06;;;;;;;13.43;7.28;;;21.70;99.90;;;;;;4805107;29;20026;-59
2023/06/02 08:14:32;;;;;;;10.25;6.82;;;21.80;99.90;;;;;;4804335;29;20367;-60
2023/06/02 08:16:57;;;;;;;9.43;6.85;;;21.90;99.90;;;;;;4805045;29;20417;-59
2023/06/02 08:19:23;;;;;;;8.02;6.65;;;22.00;99.90;;;;;;4804976;29;20031;-60
2023/06/02 08:21:49;;;;;;;9.68;6.90;;;22.00;99.90;;;;;;4805054;29;20105;-58
2023/06/02 08:24:15;;;;;;;12.32;7.60;;;22.20;99.90;;;;;;4804812;29;20141;-57
2023/06/02 08:26:41;;;;;;;9.15;6.43;;;22.40;99.90;;;;;;4804856;29;20099;-57
2023/06/02 08:29:09;;;;;;;10.95;6.05;;;22.50;99.90;;;;;;4804951;29;20027;-57
2023/06/02 08:31:36;;;;;;;15.32;6.85;;;22.60;99.90;;;;;;4804799;29;20031;-56
2023/06/02 08:34:06;;;;;;;13.43;6.40;;;22.60;99.90;;;;;;4804937;29;20468;-56
2023/06/02 08:36:33;;;;;;;13.75;6.40;;;22.70;99.90;;;;;;4804149;29;20137;-56
2023/06/02 08:39:06;;;;;;;10.85;6.95;;;22.80;99.90;;;;;;4804612;29;20027;-57
2023/06/02 08:41:39;;;;;;;12.45;7.22;;;22.80;36.30;;;;;;4804803;29;20417;-56
2023/06/02 08:44:05;;;;;;;16.65;7.43;;;23.00;54.20;;;;;;4804103;29;20440;-56
2023/06/02 08:46:31;;;;;;;19.25;8.60;;;23.30;23.00;;;;;;4815492;29;20039;-58
2023/06/02 08:48:58;;;;;;;10.25;5.53;;;23.40;1.00;;;;;;4822986;29;20043;-56
2023/06/02 08:51:24;;;;;;;8.98;5.63;;;23.40;1.00;;;;;;4822805;29;20030;-57
2023/06/02 08:53:50;;;;;;;11.82;5.13;;;23.70;1.00;;;;;;4822850;29;20031;-58
2023/06/02 08:56:16;;;;;;;13.80;5.70;;;23.90;1.00;;;;;;4822391;29;20065;-54
2023/06/02 08:58:46;;;;;;;11.10;5.90;;;23.90;1.00;;;;;;4822931;29;20463;-58
2023/06/02 09:01:12;;;;;;;9.50;5.50;;;24.00;1.00;;;;;;4808937;29;20471;-58
2023/06/02 09:03:38;;;;;;;9.77;6.40;;;24.00;1.00;;;;;;4804525;29;20030;-58
2023/06/02 09:06:26;;;;;;;9.80;5.05;;;23.90;1.00;;;;;;4804401;29;20023;-59
2023/06/02 09:09:11;;;;;;;11.57;5.07;;;24.20;1.00;;;;;;4804427;29;20023;-56
2023/06/02 09:11:37;;;;;;;9.77;4.80;;;24.10;1.00;;;;;;4804568;29;20023;-55
2023/06/02 09:14:19;;;;;;;8.13;5.00;;;24.30;1.00;;;;;;4804259;29;20045;-60
2023/06/02 09:16:45;;;;;;;8.70;4.82;;;24.70;1.00;;;;;;4804178;29;20027;-59
2023/06/02 09:19:10;;;;;;;5.10;3.90;;;24.90;1.00;;;;;;4803794;29;20096;-59
2023/06/02 09:21:37;;;;;;;21.48;5.03;;;25.20;1.00;;;;;;4804339;29;20033;-59
2023/06/02 09:24:03;;;;;;;12.23;4.63;;;25.10;1.00;;;;;;4804020;29;20047;-60
2023/06/02 09:26:30;;;;;;;7.60;4.28;;;25.30;1.00;;;;;;4807330;29;20046;-60
2023/06/02 09:29:08;;;;;;;7.65;4.97;;;25.40;1.00;;;;;;4807782;29;20102;-60
2023/06/02 09:31:49;;;;;;;8.23;5.13;;;25.20;1.00;;;;;;4807966;29;20117;-59
2023/06/02 09:34:16;;;;;;;18.20;5.45;;;24.90;1.00;;;;;;4807492;29;20037;-60
2023/06/02 09:36:43;;;;;;;7.88;5.25;;;24.50;1.00;;;;;;4807787;29;20026;-59
2023/06/02 09:39:10;;;;;;;6.53;4.40;;;24.20;1.00;;;;;;4807238;29;20144;-60
2023/06/02 09:41:40;;;;;;;6.75;5.53;;;24.00;1.00;;;;;;4807675;29;20027;-60
2023/06/02 09:44:13;;;;;;;5.30;4.38;;;23.90;1.00;;;;;;4807670;29;20558;-60
2023/06/02 09:46:40;;;;;;;;;;;23.90;1.00;;;;;;4808263;29;20077;-60
2023/06/02 09:49:06;;;;;;;4.57;3.67;;;24.50;1.00;;;;;;4807193;29;19916;-59
2023/06/02 09:51:32;;;;;;;6.13;4.13;;;25.20;99.90;;;;;;4807422;29;20030;-60
2023/06/02 09:53:58;;;;;;;6.07;4.10;;;25.90;99.90;;;;;;4807495;29;20027;-60
2023/06/02 09:56:27;;;;;;;13.75;4.28;;;26.70;99.90;;;;;;4807615;29;20029;-61
2023/06/02 09:58:55;;;;;;;9.18;4.03;;;27.00;99.90;;;;;;4807447;29;20388;-60
2023/06/02 10:01:22;;;;;;;6.93;3.83;;;26.50;99.90;;;;;;4807685;29;20027;-61
2023/06/02 10:03:47;;;;;;;7.68;3.88;;;26.80;99.90;;;;;;4807407;29;20058;-60
2023/06/02 10:06:30;;;;;;;6.20;4.05;;;26.60;99.90;;;;;;4807351;29;20062;-60
2023/06/02 10:08:58;;;;;;;11.10;3.88;;;26.60;99.90;;;;;;4806915;29;20019;-60
2023/06/02 10:11:48;;;;;;;5.00;3.75;;;26.20;99.90;;;;;;4807496;29;20027;-60
2023/06/02 10:14:30;;;;;;;11.13;4.18;;;25.70;99.90;;;;;;4807225;29;20018;-60
2023/06/02 10:17:34;;;;;;;10.40;4.28;;;25.20;99.90;;;;;;4807222;29;20109;-61
2023/06/02 10:20:39;;;;;;;8.93;4.32;;;24.90;99.90;;;;;;4787681;29;20033;-60
2023/06/02 10:23:30;;;;;;;10.18;4.07;;;24.90;99.90;;;;;;4796575;29;20031;-60
2023/06/02 10:26:17;;;;;;;5.55;3.70;;;25.30;99.90;;;;;;4796112;29;20063;-59
2023/06/02 10:28:44;;;;;;;13.40;4.20;;;26.00;99.90;;;;;;4796584;29;20038;-60
2023/06/02 10:31:11;;;;;;;11.98;4.07;;;26.50;99.90;;;;;;4796288;29;20046;-59
2023/06/02 10:33:41;;;;;;;4.47;3.30;;;26.80;99.90;;;;;;4796600;29;20428;-60
2023/06/02 10:36:07;;;;;;;7.05;3.40;;;27.40;99.90;;;;;;4796295;29;20125;-60
2023/06/02 10:38:34;;;;;;;10.30;3.63;;;27.90;99.90;;;;;;4794100;29;20365;-60
2023/06/02 10:41:00;;;;;;;11.18;3.80;;;28.50;99.90;;;;;;4796081;29;20050;-60
2023/06/02 10:43:26;;;;;;;8.63;4.18;;;28.70;99.90;;;;;;4796844;29;20076;-60
2023/06/02 10:45:54;;;;;;;7.93;3.95;;;27.40;99.90;;;;;;4794582;29;20456;-60
2023/06/02 10:48:42;;;;;;;12.25;3.88;;;27.10;99.90;;;;;;4796379;29;20034;-60
2023/06/02 10:51:09;;;;;;;8.68;3.63;;;27.10;99.90;;;;;;4796329;29;20047;-59
2023/06/02 10:54:06;;;;;;;13.55;3.42;;;27.70;99.90;;;;;;4795427;29;20030;-60
2023/06/02 10:56:35;;;;;;;6.70;2.88;;;27.60;99.90;;;;;;4795407;29;20053;-61
2023/06/02 10:59:00;;;;;;;8.35;3.55;;;27.60;99.90;;;;;;4795947;29;20034;-60
2023/06/02 11:01:46;;;;;;;9.48;3.40;;;27.80;99.90;;;;;;4796101;29;20051;-60
2023/06/02 11:04:24;;;;;;;10.65;3.55;;;28.40;99.90;;;;;;4795592;29;20096;-60
2023/06/02 11:07:12;;;;;;;7.68;2.80;;;28.50;99.90;;;;;;4795640;29;20027;-61
2023/06/02 11:09:42;;;;;;;6.93;2.95;;;28.40;99.90;;;;;;4795780;29;20068;-60
2023/06/02 11:12:09;;;;;;;6.88;3.35;;;28.40;99.90;;;;;;4795272;29;20042;-60
2023/06/02 11:15:07;;;;;;;14.70;3.38;;;28.10;99.90;;;;;;4795841;29;20035;-60
2023/06/02 11:17:34;;;;;;;15.93;3.33;;;27.30;99.90;;;;;;4784115;29;20492;-60
2023/06/02 11:20:00;;;;;;;6.95;3.22;;;27.40;99.90;;;;;;4793266;29;20087;-60
2023/06/02 11:22:27;;;;;;;8.65;3.97;;;27.50;99.90;;;;;;4795965;29;20388;-60
2023/06/02 11:24:54;;;;;;;8.68;2.92;;;27.10;99.90;;;;;;4794552;29;20587;-60
2023/06/02 11:27:43;;;;;;;5.00;2.97;;;26.60;99.90;;;;;;4795885;29;20104;-60
2023/06/02 11:30:10;;;;;;;8.07;4.38;;;26.40;99.90;;;;;;4795508;29;20047;-60
2023/06/02 11:32:36;;;;;;;9.25;3.10;;;26.50;99.90;;;;;;4795545;29;20042;-60
2023/06/02 11:35:05;;;;;;;9.18;3.13;;;26.60;99.90;;;;;;4795022;29;20030;-60
2023/06/02 11:37:31;;;;;;;11.65;3.33;;;27.00;99.90;;;;;;4795105;29;20035;-60
2023/06/02 11:39:57;;;;;;;10.90;3.25;;;27.50;99.90;;;;;;4795387;29;20035;-60
2023/06/02 11:42:37;;;;;;;16.02;3.50;;;27.40;99.90;;;;;;4795710;29;20088;-60
2023/06/02 11:45:03;;;;;;;11.85;3.83;;;27.90;99.90;;;;;;4795150;29;20095;-60
2023/06/02 11:47:30;;;;;;;14.57;3.42;;;28.80;99.90;;;;;;4795758;29;20068;-60
2023/06/02 11:49:56;;;;;;;9.52;3.95;;;28.40;99.90;;;;;;4794300;29;20045;-61
2023/06/02 11:52:21;;;;;;;7.28;4.57;;;28.00;99.90;;;;;;4794963;29;20047;-60
2023/06/02 11:54:52;;;;;;;9.70;3.17;;;27.00;99.90;;;;;;4794759;29;20363;-60
2023/06/02 11:57:32;;;;;;;12.13;4.05;;;26.70;99.90;;;;;;4809560;29;20126;-60
2023/06/02 12:03:19;;;;;;;8.10;3.97;;;28.40;99.90;;;;;;4794888;29;20096;-60
2023/06/02 12:05:47;;;;;;;4.65;2.97;;;29.00;99.90;;;;;;4794741;29;22391;-60
2023/06/02 12:08:22;;;;;;;7.93;3.25;;;29.00;99.90;;;;;;4794392;29;20096;-60
2023/06/02 12:10:49;;;;;;;26.80;3.65;;;29.60;99.90;;;;;;4794745;29;20039;-60
2023/06/02 12:13:25;;;;;;;10.73;3.10;;;29.30;99.90;;;;;;4794882;29;20039;-60
2023/06/02 12:15:51;;;;;;;10.48;3.17;;;29.50;99.90;;;;;;4794553;29;20049;-60
2023/06/02 12:18:28;;;;;;;7.30;3.63;;;29.20;99.90;;;;;;4794797;29;20035;-60
2023/06/02 12:20:55;;;;;;;6.38;3.30;;;29.50;99.90;;;;;;4795431;29;20038;-61
2023/06/02 12:23:20;;;;;;;7.95;3.60;;;30.00;99.90;;;;;;4795074;29;20031;-60
2023/06/02 12:25:59;;;;;;;6.95;3.42;;;30.20;99.90;;;;;;4794886;29;20062;-61
2023/06/02 12:28:25;;;;;;;8.65;2.90;;;31.20;99.90;;;;;;4794692;29;20038;-60
2023/06/02 12:30:51;;;;;;;15.68;3.80;;;31.10;99.90;;;;;;4794957;29;20364;-61
2023/06/02 12:33:17;;;;;;;9.57;3.53;;;31.30;99.90;;;;;;4793941;29;20083;-60
2023/06/02 12:35:43;;;;;;;20.52;3.28;;;31.90;99.90;;;;;;4808341;29;20440;-61
2023/06/02 12:38:09;;;;;;;15.32;3.25;;;31.80;99.90;;;;;;4794770;29;20514;-61
2023/06/02 12:40:37;;;;;;;7.85;3.85;;;32.70;99.90;;;;;;4794283;29;20058;-61
2023/06/02 12:43:02;;;;;;;8.95;3.38;;;32.90;99.90;;;;;;4794740;29;20596;-61
2023/06/02 12:45:28;;;;;;;10.68;3.85;;;33.20;99.90;;;;;;4794357;29;20129;-61
2023/06/02 12:47:54;;;;;;;11.60;3.67;;;33.10;99.90;;;;;;4794368;29;20038;-61
2023/06/02 12:50:21;;;;;;;7.85;2.70;;;33.60;99.90;;;;;;4793751;29;20039;-60
2023/06/02 12:52:47;;;;;;;8.27;3.10;;;32.90;99.90;;;;;;4794615;29;20099;-61